sensor_id;sensor_type;location;lat;lon;timestamp;P1;durP1;ratioP1;P2;durP2;ratioP2
39750;SDS011;37579;51.074;17.004;2023-03-12T00:00:50;3.38;;;1.58;;
39750;SDS011;37579;51.074;17.004;2023-03-12T00:03:16;3.50;;;1.73;;
39750;SDS011;37579;51.074;17.004;2023-03-12T00:05:42;3.58;;;1.35;;
39750;SDS011;37579;51.074;17.004;2023-03-12T00:08:09;4.22;;;1.67;;
39750;SDS011;37579;51.074;17.004;2023-03-12T00:10:36;2.88;;;1.52;;
39750;SDS011;37579;51.074;17.004;2023-03-12T00:13:03;2.97;;;1.42;;
39750;SDS011;37579;51.074;17.004;2023-03-12T00:15:29;2.00;;;1.42;;
39750;SDS011;37579;51.074;17.004;2023-03-12T00:17:54;1.92;;;1.40;;
39750;SDS011;37579;51.074;17.004;2023-03-12T00:20:20;2.25;;;1.40;;
39750;SDS011;37579;51.074;17.004;2023-03-12T00:22:47;2.88;;;1.42;;
39750;SDS011;37579;51.074;17.004;2023-03-12T00:25:14;2.30;;;1.42;;
39750;SDS011;37579;51.074;17.004;2023-03-12T00:27:41;1.88;;;1.40;;
39750;SDS011;37579;51.074;17.004;2023-03-12T00:30:08;3.83;;;1.67;;
39750;SDS011;37579;51.074;17.004;2023-03-12T00:32:35;1.52;;;1.15;;
39750;SDS011;37579;51.074;17.004;2023-03-12T00:35:02;2.25;;;1.20;;
39750;SDS011;37579;51.074;17.004;2023-03-12T00:37:28;1.95;;;1.10;;
39750;SDS011;37579;51.074;17.004;2023-03-12T00:39:54;2.30;;;1.45;;
39750;SDS011;37579;51.074;17.004;2023-03-12T00:42:20;2.33;;;1.40;;
39750;SDS011;37579;51.074;17.004;2023-03-12T00:44:46;1.98;;;1.20;;
39750;SDS011;37579;51.074;17.004;2023-03-12T00:47:11;2.15;;;1.23;;
39750;SDS011;37579;51.074;17.004;2023-03-12T00:49:38;1.77;;;1.10;;
39750;SDS011;37579;51.074;17.004;2023-03-12T00:52:04;2.28;;;1.33;;
39750;SDS011;37579;51.074;17.004;2023-03-12T00:54:30;1.70;;;1.30;;
39750;SDS011;37579;51.074;17.004;2023-03-12T00:56:56;1.17;;;1.00;;
39750;SDS011;37579;51.074;17.004;2023-03-12T00:59:22;2.05;;;1.20;;
39750;SDS011;37579;51.074;17.004;2023-03-12T01:01:48;2.45;;;1.48;;
39750;SDS011;37579;51.074;17.004;2023-03-12T01:04:14;2.13;;;1.20;;
39750;SDS011;37579;51.074;17.004;2023-03-12T01:06:41;2.35;;;1.35;;
39750;SDS011;37579;51.074;17.004;2023-03-12T01:09:08;1.85;;;1.27;;
39750;SDS011;37579;51.074;17.004;2023-03-12T01:11:34;1.60;;;1.30;;
39750;SDS011;37579;51.074;17.004;2023-03-12T01:14:01;2.08;;;1.13;;
39750;SDS011;37579;51.074;17.004;2023-03-12T01:16:28;2.88;;;1.30;;
39750;SDS011;37579;51.074;17.004;2023-03-12T01:18:55;2.03;;;1.35;;
39750;SDS011;37579;51.074;17.004;2023-03-12T01:21:22;2.10;;;1.20;;
39750;SDS011;37579;51.074;17.004;2023-03-12T01:23:48;2.78;;;1.42;;
39750;SDS011;37579;51.074;17.004;2023-03-12T01:26:14;2.28;;;1.00;;
39750;SDS011;37579;51.074;17.004;2023-03-12T01:28:41;1.63;;;0.90;;
39750;SDS011;37579;51.074;17.004;2023-03-12T01:31:07;2.17;;;1.20;;
39750;SDS011;37579;51.074;17.004;2023-03-12T01:33:34;2.88;;;1.40;;
39750;SDS011;37579;51.074;17.004;2023-03-12T01:36:00;1.70;;;0.90;;
39750;SDS011;37579;51.074;17.004;2023-03-12T01:38:26;2.05;;;1.38;;
39750;SDS011;37579;51.074;17.004;2023-03-12T01:40:52;2.45;;;1.30;;
39750;SDS011;37579;51.074;17.004;2023-03-12T01:46:00;1.75;;;1.30;;
39750;SDS011;37579;51.074;17.004;2023-03-12T01:48:29;1.60;;;1.10;;
39750;SDS011;37579;51.074;17.004;2023-03-12T01:51:01;2.20;;;1.17;;
39750;SDS011;37579;51.074;17.004;2023-03-12T01:53:28;1.52;;;1.00;;
39750;SDS011;37579;51.074;17.004;2023-03-12T01:55:54;1.20;;;1.00;;
39750;SDS011;37579;51.074;17.004;2023-03-12T01:58:21;1.73;;;1.20;;
39750;SDS011;37579;51.074;17.004;2023-03-12T02:00:47;1.85;;;1.17;;
39750;SDS011;37579;51.074;17.004;2023-03-12T02:03:13;1.42;;;1.00;;
39750;SDS011;37579;51.074;17.004;2023-03-12T02:05:44;1.90;;;1.08;;
39750;SDS011;37579;51.074;17.004;2023-03-12T02:08:17;1.77;;;0.98;;
39750;SDS011;37579;51.074;17.004;2023-03-12T02:10:44;1.80;;;1.30;;
39750;SDS011;37579;51.074;17.004;2023-03-12T02:13:11;1.80;;;1.10;;
39750;SDS011;37579;51.074;17.004;2023-03-12T02:15:42;2.42;;;1.20;;
39750;SDS011;37579;51.074;17.004;2023-03-12T02:18:08;1.67;;;1.17;;
39750;SDS011;37579;51.074;17.004;2023-03-12T02:26:29;1.65;;;1.10;;
39750;SDS011;37579;51.074;17.004;2023-03-12T02:28:58;1.45;;;1.00;;
39750;SDS011;37579;51.074;17.004;2023-03-12T02:31:25;1.95;;;0.80;;
39750;SDS011;37579;51.074;17.004;2023-03-12T02:33:57;1.40;;;1.17;;
39750;SDS011;37579;51.074;17.004;2023-03-12T02:36:25;1.80;;;1.08;;
39750;SDS011;37579;51.074;17.004;2023-03-12T02:38:52;2.05;;;1.17;;
39750;SDS011;37579;51.074;17.004;2023-03-12T02:46:35;1.55;;;1.05;;
39750;SDS011;37579;51.074;17.004;2023-03-12T02:51:30;2.75;;;1.00;;
39750;SDS011;37579;51.074;17.004;2023-03-12T02:53:55;2.42;;;1.00;;
39750;SDS011;37579;51.074;17.004;2023-03-12T02:56:22;1.65;;;1.00;;
39750;SDS011;37579;51.074;17.004;2023-03-12T02:58:51;2.33;;;0.90;;
39750;SDS011;37579;51.074;17.004;2023-03-12T03:01:18;1.38;;;0.77;;
39750;SDS011;37579;51.074;17.004;2023-03-12T03:03:44;1.88;;;1.02;;
39750;SDS011;37579;51.074;17.004;2023-03-12T03:06:11;2.20;;;1.02;;
39750;SDS011;37579;51.074;17.004;2023-03-12T03:08:37;2.20;;;0.88;;
39750;SDS011;37579;51.074;17.004;2023-03-12T03:11:03;2.10;;;1.00;;
39750;SDS011;37579;51.074;17.004;2023-03-12T03:13:30;1.85;;;1.00;;
39750;SDS011;37579;51.074;17.004;2023-03-12T03:15:57;1.35;;;1.00;;
39750;SDS011;37579;51.074;17.004;2023-03-12T03:18:26;2.63;;;0.85;;
39750;SDS011;37579;51.074;17.004;2023-03-12T03:20:54;1.42;;;0.90;;
39750;SDS011;37579;51.074;17.004;2023-03-12T03:23:23;1.88;;;1.00;;
39750;SDS011;37579;51.074;17.004;2023-03-12T03:25:49;2.30;;;1.00;;
39750;SDS011;37579;51.074;17.004;2023-03-12T03:28:20;1.20;;;1.00;;
39750;SDS011;37579;51.074;17.004;2023-03-12T03:33:17;1.83;;;1.05;;
39750;SDS011;37579;51.074;17.004;2023-03-12T03:35:43;1.73;;;0.93;;
39750;SDS011;37579;51.074;17.004;2023-03-12T03:38:09;1.50;;;0.90;;
39750;SDS011;37579;51.074;17.004;2023-03-12T03:40:35;1.50;;;0.93;;
39750;SDS011;37579;51.074;17.004;2023-03-12T03:43:00;1.60;;;0.90;;
39750;SDS011;37579;51.074;17.004;2023-03-12T03:45:27;1.20;;;0.70;;
39750;SDS011;37579;51.074;17.004;2023-03-12T03:47:53;1.65;;;0.82;;
39750;SDS011;37579;51.074;17.004;2023-03-12T03:50:19;1.27;;;0.73;;
39750;SDS011;37579;51.074;17.004;2023-03-12T03:52:45;1.38;;;0.98;;
39750;SDS011;37579;51.074;17.004;2023-03-12T03:55:11;1.10;;;0.60;;
39750;SDS011;37579;51.074;17.004;2023-03-12T03:57:38;1.17;;;0.90;;
39750;SDS011;37579;51.074;17.004;2023-03-12T04:00:05;1.52;;;0.90;;
39750;SDS011;37579;51.074;17.004;2023-03-12T04:02:38;1.00;;;0.70;;
39750;SDS011;37579;51.074;17.004;2023-03-12T04:05:06;1.42;;;0.70;;
39750;SDS011;37579;51.074;17.004;2023-03-12T04:07:32;1.95;;;0.82;;
39750;SDS011;37579;51.074;17.004;2023-03-12T04:09:59;2.30;;;1.13;;
39750;SDS011;37579;51.074;17.004;2023-03-12T04:12:25;1.17;;;0.77;;
39750;SDS011;37579;51.074;17.004;2023-03-12T04:14:52;1.75;;;0.80;;
39750;SDS011;37579;51.074;17.004;2023-03-12T04:17:18;1.52;;;0.80;;
39750;SDS011;37579;51.074;17.004;2023-03-12T04:19:45;0.88;;;0.60;;
39750;SDS011;37579;51.074;17.004;2023-03-12T04:22:11;1.10;;;0.70;;
39750;SDS011;37579;51.074;17.004;2023-03-12T04:24:37;1.35;;;0.90;;
39750;SDS011;37579;51.074;17.004;2023-03-12T04:27:03;0.90;;;0.68;;
39750;SDS011;37579;51.074;17.004;2023-03-12T04:29:31;1.95;;;0.80;;
39750;SDS011;37579;51.074;17.004;2023-03-12T04:31:56;0.98;;;0.60;;
39750;SDS011;37579;51.074;17.004;2023-03-12T04:34:22;1.20;;;0.80;;
39750;SDS011;37579;51.074;17.004;2023-03-12T04:36:50;1.20;;;0.75;;
39750;SDS011;37579;51.074;17.004;2023-03-12T04:39:16;1.20;;;0.70;;
39750;SDS011;37579;51.074;17.004;2023-03-12T04:41:44;0.73;;;0.60;;
39750;SDS011;37579;51.074;17.004;2023-03-12T04:44:13;1.17;;;0.85;;
39750;SDS011;37579;51.074;17.004;2023-03-12T04:46:40;2.13;;;0.80;;
39750;SDS011;37579;51.074;17.004;2023-03-12T04:49:06;1.10;;;0.70;;
39750;SDS011;37579;51.074;17.004;2023-03-12T04:51:34;0.85;;;0.60;;
39750;SDS011;37579;51.074;17.004;2023-03-12T04:54:02;1.02;;;0.50;;
39750;SDS011;37579;51.074;17.004;2023-03-12T04:56:28;1.48;;;0.60;;
39750;SDS011;37579;51.074;17.004;2023-03-12T04:58:54;0.90;;;0.70;;
39750;SDS011;37579;51.074;17.004;2023-03-12T05:01:27;1.20;;;0.65;;
39750;SDS011;37579;51.074;17.004;2023-03-12T05:03:55;1.17;;;0.70;;
39750;SDS011;37579;51.074;17.004;2023-03-12T05:06:22;1.20;;;0.50;;
39750;SDS011;37579;51.074;17.004;2023-03-12T05:08:48;0.95;;;0.70;;
39750;SDS011;37579;51.074;17.004;2023-03-12T05:11:15;2.78;;;0.63;;
39750;SDS011;37579;51.074;17.004;2023-03-12T05:13:41;0.70;;;0.43;;
39750;SDS011;37579;51.074;17.004;2023-03-12T05:16:07;1.08;;;0.80;;
39750;SDS011;37579;51.074;17.004;2023-03-12T05:18:34;1.27;;;0.55;;
39750;SDS011;37579;51.074;17.004;2023-03-12T05:21:01;1.05;;;0.57;;
39750;SDS011;37579;51.074;17.004;2023-03-12T05:23:29;2.15;;;0.75;;
39750;SDS011;37579;51.074;17.004;2023-03-12T05:25:56;1.08;;;0.70;;
39750;SDS011;37579;51.074;17.004;2023-03-12T05:28:23;0.90;;;0.60;;
39750;SDS011;37579;51.074;17.004;2023-03-12T05:30:56;0.98;;;0.50;;
39750;SDS011;37579;51.074;17.004;2023-03-12T05:33:23;1.27;;;0.50;;
39750;SDS011;37579;51.074;17.004;2023-03-12T05:35:50;0.93;;;0.52;;
39750;SDS011;37579;51.074;17.004;2023-03-12T05:38:16;1.02;;;0.50;;
39750;SDS011;37579;51.074;17.004;2023-03-12T05:40:49;1.35;;;0.73;;
39750;SDS011;37579;51.074;17.004;2023-03-12T05:43:17;1.33;;;0.80;;
39750;SDS011;37579;51.074;17.004;2023-03-12T05:45:43;1.50;;;0.68;;
39750;SDS011;37579;51.074;17.004;2023-03-12T05:48:08;1.20;;;0.57;;
39750;SDS011;37579;51.074;17.004;2023-03-12T05:50:34;1.05;;;0.43;;
39750;SDS011;37579;51.074;17.004;2023-03-12T05:53:00;1.17;;;0.60;;
39750;SDS011;37579;51.074;17.004;2023-03-12T05:55:26;0.90;;;0.50;;
39750;SDS011;37579;51.074;17.004;2023-03-12T05:57:52;1.58;;;0.73;;
39750;SDS011;37579;51.074;17.004;2023-03-12T06:00:18;0.90;;;0.40;;
39750;SDS011;37579;51.074;17.004;2023-03-12T06:02:52;1.67;;;0.60;;
39750;SDS011;37579;51.074;17.004;2023-03-12T06:05:18;1.33;;;0.45;;
39750;SDS011;37579;51.074;17.004;2023-03-12T06:07:44;0.98;;;0.52;;
39750;SDS011;37579;51.074;17.004;2023-03-12T06:10:10;1.20;;;0.50;;
39750;SDS011;37579;51.074;17.004;2023-03-12T06:12:36;1.20;;;0.68;;
39750;SDS011;37579;51.074;17.004;2023-03-12T06:15:03;0.90;;;0.60;;
39750;SDS011;37579;51.074;17.004;2023-03-12T06:17:30;1.13;;;0.52;;
39750;SDS011;37579;51.074;17.004;2023-03-12T06:19:57;0.75;;;0.57;;
39750;SDS011;37579;51.074;17.004;2023-03-12T06:22:23;2.97;;;0.40;;
39750;SDS011;37579;51.074;17.004;2023-03-12T06:24:50;0.70;;;0.40;;
39750;SDS011;37579;51.074;17.004;2023-03-12T06:27:17;1.83;;;0.57;;
39750;SDS011;37579;51.074;17.004;2023-03-12T06:29:42;1.48;;;0.55;;
39750;SDS011;37579;51.074;17.004;2023-03-12T06:32:11;0.82;;;0.50;;
39750;SDS011;37579;51.074;17.004;2023-03-12T06:34:37;1.13;;;0.75;;
39750;SDS011;37579;51.074;17.004;2023-03-12T06:37:03;0.80;;;0.40;;
39750;SDS011;37579;51.074;17.004;2023-03-12T06:39:29;0.93;;;0.52;;
39750;SDS011;37579;51.074;17.004;2023-03-12T06:41:55;0.95;;;0.60;;
39750;SDS011;37579;51.074;17.004;2023-03-12T06:44:21;0.77;;;0.50;;
39750;SDS011;37579;51.074;17.004;2023-03-12T06:46:46;0.68;;;0.43;;
39750;SDS011;37579;51.074;17.004;2023-03-12T06:49:13;1.15;;;0.60;;
39750;SDS011;37579;51.074;17.004;2023-03-12T06:51:39;0.88;;;0.43;;
39750;SDS011;37579;51.074;17.004;2023-03-12T06:54:04;1.60;;;0.65;;
39750;SDS011;37579;51.074;17.004;2023-03-12T06:56:31;0.73;;;0.43;;
39750;SDS011;37579;51.074;17.004;2023-03-12T06:58:57;0.80;;;0.43;;
39750;SDS011;37579;51.074;17.004;2023-03-12T07:01:23;0.77;;;0.43;;
39750;SDS011;37579;51.074;17.004;2023-03-12T07:03:48;1.58;;;0.47;;
39750;SDS011;37579;51.074;17.004;2023-03-12T07:06:18;2.05;;;0.70;;
39750;SDS011;37579;51.074;17.004;2023-03-12T07:08:46;0.73;;;0.47;;
39750;SDS011;37579;51.074;17.004;2023-03-12T07:11:12;1.05;;;0.65;;
39750;SDS011;37579;51.074;17.004;2023-03-12T07:13:38;1.15;;;0.50;;
39750;SDS011;37579;51.074;17.004;2023-03-12T07:16:05;2.72;;;0.60;;
39750;SDS011;37579;51.074;17.004;2023-03-12T07:18:32;1.27;;;0.73;;
39750;SDS011;37579;51.074;17.004;2023-03-12T07:20:58;1.38;;;0.32;;
39750;SDS011;37579;51.074;17.004;2023-03-12T07:23:24;1.52;;;0.55;;
39750;SDS011;37579;51.074;17.004;2023-03-12T07:25:50;2.45;;;0.57;;
39750;SDS011;37579;51.074;17.004;2023-03-12T07:28:16;3.30;;;0.60;;
39750;SDS011;37579;51.074;17.004;2023-03-12T07:30:43;2.45;;;0.60;;
39750;SDS011;37579;51.074;17.004;2023-03-12T07:33:14;1.63;;;0.65;;
39750;SDS011;37579;51.074;17.004;2023-03-12T07:35:42;3.30;;;0.60;;
39750;SDS011;37579;51.074;17.004;2023-03-12T07:38:09;1.08;;;0.60;;
39750;SDS011;37579;51.074;17.004;2023-03-12T07:40:35;1.50;;;0.50;;
39750;SDS011;37579;51.074;17.004;2023-03-12T07:43:01;2.38;;;0.80;;
39750;SDS011;37579;51.074;17.004;2023-03-12T07:45:30;3.05;;;0.98;;
39750;SDS011;37579;51.074;17.004;2023-03-12T07:47:56;5.30;;;1.73;;
39750;SDS011;37579;51.074;17.004;2023-03-12T07:50:22;4.63;;;2.60;;
39750;SDS011;37579;51.074;17.004;2023-03-12T07:52:48;8.40;;;4.45;;
39750;SDS011;37579;51.074;17.004;2023-03-12T07:55:13;8.63;;;4.60;;
39750;SDS011;37579;51.074;17.004;2023-03-12T07:57:40;10.13;;;4.50;;
39750;SDS011;37579;51.074;17.004;2023-03-12T08:00:06;9.07;;;5.53;;
39750;SDS011;37579;51.074;17.004;2023-03-12T08:02:36;9.82;;;5.25;;
39750;SDS011;37579;51.074;17.004;2023-03-12T08:05:02;10.75;;;6.00;;
39750;SDS011;37579;51.074;17.004;2023-03-12T08:07:29;13.60;;;6.95;;
39750;SDS011;37579;51.074;17.004;2023-03-12T08:09:59;12.43;;;7.00;;
39750;SDS011;37579;51.074;17.004;2023-03-12T08:12:26;16.15;;;7.07;;
39750;SDS011;37579;51.074;17.004;2023-03-12T08:14:53;11.80;;;6.57;;
39750;SDS011;37579;51.074;17.004;2023-03-12T08:17:19;17.50;;;7.30;;
39750;SDS011;37579;51.074;17.004;2023-03-12T08:19:45;12.38;;;6.22;;
39750;SDS011;37579;51.074;17.004;2023-03-12T08:22:11;12.80;;;6.43;;
39750;SDS011;37579;51.074;17.004;2023-03-12T08:24:36;13.80;;;7.00;;
39750;SDS011;37579;51.074;17.004;2023-03-12T08:27:02;15.05;;;7.40;;
39750;SDS011;37579;51.074;17.004;2023-03-12T08:29:28;10.07;;;6.28;;
39750;SDS011;37579;51.074;17.004;2023-03-12T08:31:54;14.20;;;6.78;;
39750;SDS011;37579;51.074;17.004;2023-03-12T08:34:20;12.90;;;6.47;;
39750;SDS011;37579;51.074;17.004;2023-03-12T08:36:46;9.00;;;5.60;;
39750;SDS011;37579;51.074;17.004;2023-03-12T08:39:12;12.85;;;6.50;;
39750;SDS011;37579;51.074;17.004;2023-03-12T08:41:37;12.45;;;6.20;;
39750;SDS011;37579;51.074;17.004;2023-03-12T08:44:03;12.32;;;6.00;;
39750;SDS011;37579;51.074;17.004;2023-03-12T08:46:29;10.10;;;5.50;;
39750;SDS011;37579;51.074;17.004;2023-03-12T08:48:55;9.80;;;5.43;;
39750;SDS011;37579;51.074;17.004;2023-03-12T08:51:21;12.05;;;5.90;;
39750;SDS011;37579;51.074;17.004;2023-03-12T08:53:47;9.82;;;5.13;;
39750;SDS011;37579;51.074;17.004;2023-03-12T08:56:12;9.50;;;5.43;;
39750;SDS011;37579;51.074;17.004;2023-03-12T08:58:38;10.98;;;4.85;;
39750;SDS011;37579;51.074;17.004;2023-03-12T09:01:11;10.68;;;4.22;;
39750;SDS011;37579;51.074;17.004;2023-03-12T09:06:06;9.52;;;5.40;;
39750;SDS011;37579;51.074;17.004;2023-03-12T09:08:37;12.70;;;5.18;;
39750;SDS011;37579;51.074;17.004;2023-03-12T09:11:04;10.93;;;4.55;;
39750;SDS011;37579;51.074;17.004;2023-03-12T09:13:30;10.48;;;4.63;;
39750;SDS011;37579;51.074;17.004;2023-03-12T09:15:59;10.95;;;4.57;;
39750;SDS011;37579;51.074;17.004;2023-03-12T09:18:26;11.15;;;4.63;;
39750;SDS011;37579;51.074;17.004;2023-03-12T09:20:53;7.90;;;4.07;;
39750;SDS011;37579;51.074;17.004;2023-03-12T09:23:20;8.85;;;4.20;;
39750;SDS011;37579;51.074;17.004;2023-03-12T09:25:46;7.80;;;4.10;;
39750;SDS011;37579;51.074;17.004;2023-03-12T09:28:12;10.32;;;4.30;;
39750;SDS011;37579;51.074;17.004;2023-03-12T09:30:38;9.63;;;3.83;;
39750;SDS011;37579;51.074;17.004;2023-03-12T09:33:04;8.70;;;3.97;;
39750;SDS011;37579;51.074;17.004;2023-03-12T09:35:31;6.82;;;4.05;;
39750;SDS011;37579;51.074;17.004;2023-03-12T09:37:57;7.85;;;3.83;;
39750;SDS011;37579;51.074;17.004;2023-03-12T09:40:24;9.27;;;4.10;;
39750;SDS011;37579;51.074;17.004;2023-03-12T09:42:57;7.55;;;4.07;;
39750;SDS011;37579;51.074;17.004;2023-03-12T09:45:27;6.80;;;3.50;;
39750;SDS011;37579;51.074;17.004;2023-03-12T09:48:01;8.38;;;3.55;;
39750;SDS011;37579;51.074;17.004;2023-03-12T09:50:30;7.28;;;3.78;;
39750;SDS011;37579;51.074;17.004;2023-03-12T09:55:40;7.45;;;3.40;;
39750;SDS011;37579;51.074;17.004;2023-03-12T09:58:12;6.70;;;3.20;;
39750;SDS011;37579;51.074;17.004;2023-03-12T10:04:02;6.32;;;2.90;;
39750;SDS011;37579;51.074;17.004;2023-03-12T10:15:50;6.35;;;3.20;;
39750;SDS011;37579;51.074;17.004;2023-03-12T10:26:22;5.13;;;3.05;;
39750;SDS011;37579;51.074;17.004;2023-03-12T10:29:07;6.43;;;2.95;;
39750;SDS011;37579;51.074;17.004;2023-03-12T10:31:56;6.00;;;2.88;;
39750;SDS011;37579;51.074;17.004;2023-03-12T10:34:33;5.43;;;2.35;;
39750;SDS011;37579;51.074;17.004;2023-03-12T10:39:35;5.47;;;2.78;;
39750;SDS011;37579;51.074;17.004;2023-03-12T10:42:03;4.93;;;2.83;;
39750;SDS011;37579;51.074;17.004;2023-03-12T10:44:37;5.03;;;2.50;;
39750;SDS011;37579;51.074;17.004;2023-03-12T10:47:12;7.13;;;2.70;;
39750;SDS011;37579;51.074;17.004;2023-03-12T10:49:49;5.28;;;2.65;;
39750;SDS011;37579;51.074;17.004;2023-03-12T10:52:18;4.95;;;2.40;;
39750;SDS011;37579;51.074;17.004;2023-03-12T10:54:47;4.75;;;2.70;;
39750;SDS011;37579;51.074;17.004;2023-03-12T10:57:15;4.70;;;2.58;;
39750;SDS011;37579;51.074;17.004;2023-03-12T10:59:42;4.15;;;2.10;;
39750;SDS011;37579;51.074;17.004;2023-03-12T11:05:05;5.85;;;2.70;;
39750;SDS011;37579;51.074;17.004;2023-03-12T11:07:45;4.95;;;2.28;;
39750;SDS011;37579;51.074;17.004;2023-03-12T11:12:40;5.43;;;2.30;;
39750;SDS011;37579;51.074;17.004;2023-03-12T11:18:16;4.43;;;2.30;;
39750;SDS011;37579;51.074;17.004;2023-03-12T11:20:42;4.03;;;2.20;;
39750;SDS011;37579;51.074;17.004;2023-03-12T11:23:12;8.48;;;3.33;;
39750;SDS011;37579;51.074;17.004;2023-03-12T11:25:49;3.45;;;2.30;;
39750;SDS011;37579;51.074;17.004;2023-03-12T11:28:28;4.23;;;2.10;;
39750;SDS011;37579;51.074;17.004;2023-03-12T11:31:07;5.78;;;2.42;;
39750;SDS011;37579;51.074;17.004;2023-03-12T11:33:46;4.47;;;2.38;;
39750;SDS011;37579;51.074;17.004;2023-03-12T11:52:46;3.67;;;1.90;;
39750;SDS011;37579;51.074;17.004;2023-03-12T12:06:16;3.75;;;2.10;;
39750;SDS011;37579;51.074;17.004;2023-03-12T12:37:03;3.17;;;1.60;;
39750;SDS011;37579;51.074;17.004;2023-03-12T12:39:42;2.33;;;1.60;;
39750;SDS011;37579;51.074;17.004;2023-03-12T12:42:15;3.40;;;1.88;;
39750;SDS011;37579;51.074;17.004;2023-03-12T12:44:48;3.60;;;1.60;;
39750;SDS011;37579;51.074;17.004;2023-03-12T12:47:23;3.35;;;1.40;;
39750;SDS011;37579;51.074;17.004;2023-03-12T12:50:20;3.70;;;1.80;;
39750;SDS011;37579;51.074;17.004;2023-03-12T12:52:51;3.08;;;1.45;;
39750;SDS011;37579;51.074;17.004;2023-03-12T12:55:31;2.67;;;1.48;;
39750;SDS011;37579;51.074;17.004;2023-03-12T12:58:12;3.10;;;1.95;;
39750;SDS011;37579;51.074;17.004;2023-03-12T13:03:19;2.75;;;1.63;;
39750;SDS011;37579;51.074;17.004;2023-03-12T13:05:54;4.20;;;1.60;;
39750;SDS011;37579;51.074;17.004;2023-03-12T13:08:32;4.40;;;1.60;;
39750;SDS011;37579;51.074;17.004;2023-03-12T13:13:53;3.75;;;1.63;;
39750;SDS011;37579;51.074;17.004;2023-03-12T13:16:38;7.10;;;1.60;;
39750;SDS011;37579;51.074;17.004;2023-03-12T13:21:58;4.90;;;1.60;;
39750;SDS011;37579;51.074;17.004;2023-03-12T13:28:14;8.02;;;1.92;;
39750;SDS011;37579;51.074;17.004;2023-03-12T13:31:01;6.65;;;2.38;;
39750;SDS011;37579;51.074;17.004;2023-03-12T13:33:48;10.55;;;2.13;;
39750;SDS011;37579;51.074;17.004;2023-03-12T13:41:40;7.57;;;2.47;;
39750;SDS011;37579;51.074;17.004;2023-03-12T13:49:51;7.18;;;2.80;;
39750;SDS011;37579;51.074;17.004;2023-03-12T13:52:26;8.13;;;2.58;;
39750;SDS011;37579;51.074;17.004;2023-03-12T13:57:53;6.20;;;2.50;;
39750;SDS011;37579;51.074;17.004;2023-03-12T14:03:15;5.40;;;2.35;;
39750;SDS011;37579;51.074;17.004;2023-03-12T14:11:11;6.18;;;2.60;;
39750;SDS011;37579;51.074;17.004;2023-03-12T14:19:22;9.80;;;2.75;;
39750;SDS011;37579;51.074;17.004;2023-03-12T14:21:50;11.93;;;2.30;;
39750;SDS011;37579;51.074;17.004;2023-03-12T14:24:22;6.28;;;2.08;;
39750;SDS011;37579;51.074;17.004;2023-03-12T14:26:52;4.72;;;2.17;;
39750;SDS011;37579;51.074;17.004;2023-03-12T14:29:27;6.38;;;2.22;;
39750;SDS011;37579;51.074;17.004;2023-03-12T14:32:01;5.30;;;2.60;;
39750;SDS011;37579;51.074;17.004;2023-03-12T14:34:31;4.05;;;1.80;;
39750;SDS011;37579;51.074;17.004;2023-03-12T14:39:51;12.68;;;2.30;;
39750;SDS011;37579;51.074;17.004;2023-03-12T14:42:26;8.48;;;2.40;;
39750;SDS011;37579;51.074;17.004;2023-03-12T14:45:08;5.22;;;2.10;;
39750;SDS011;37579;51.074;17.004;2023-03-12T14:47:41;5.50;;;2.13;;
39750;SDS011;37579;51.074;17.004;2023-03-12T14:50:22;5.70;;;2.25;;
39750;SDS011;37579;51.074;17.004;2023-03-12T14:52:53;9.15;;;2.10;;
39750;SDS011;37579;51.074;17.004;2023-03-12T14:55:24;4.97;;;2.33;;
39750;SDS011;37579;51.074;17.004;2023-03-12T14:58:03;10.45;;;1.90;;
39750;SDS011;37579;51.074;17.004;2023-03-12T15:00:30;3.35;;;1.80;;
39750;SDS011;37579;51.074;17.004;2023-03-12T15:02:57;3.38;;;1.85;;
39750;SDS011;37579;51.074;17.004;2023-03-12T15:05:28;5.15;;;2.35;;
39750;SDS011;37579;51.074;17.004;2023-03-12T15:07:56;6.05;;;1.90;;
39750;SDS011;37579;51.074;17.004;2023-03-12T15:10:26;5.25;;;1.90;;
39750;SDS011;37579;51.074;17.004;2023-03-12T15:12:54;11.32;;;3.33;;
39750;SDS011;37579;51.074;17.004;2023-03-12T15:15:35;4.15;;;1.85;;
39750;SDS011;37579;51.074;17.004;2023-03-12T15:18:06;13.03;;;2.30;;
39750;SDS011;37579;51.074;17.004;2023-03-12T15:20:37;5.25;;;1.98;;
39750;SDS011;37579;51.074;17.004;2023-03-12T15:23:04;6.32;;;2.05;;
39750;SDS011;37579;51.074;17.004;2023-03-12T15:25:31;6.22;;;1.85;;
39750;SDS011;37579;51.074;17.004;2023-03-12T15:31:10;5.38;;;2.03;;
39750;SDS011;37579;51.074;17.004;2023-03-12T15:33:40;4.25;;;1.85;;
39750;SDS011;37579;51.074;17.004;2023-03-12T15:38:44;4.85;;;1.75;;
39750;SDS011;37579;51.074;17.004;2023-03-12T15:41:22;9.15;;;2.58;;
39750;SDS011;37579;51.074;17.004;2023-03-12T15:43:55;6.03;;;1.70;;
39750;SDS011;37579;51.074;17.004;2023-03-12T15:46:23;5.47;;;2.08;;
39750;SDS011;37579;51.074;17.004;2023-03-12T15:48:55;5.35;;;1.60;;
39750;SDS011;37579;51.074;17.004;2023-03-12T15:53:58;6.10;;;1.77;;
39750;SDS011;37579;51.074;17.004;2023-03-12T15:56:47;3.83;;;1.83;;
39750;SDS011;37579;51.074;17.004;2023-03-12T15:59:26;6.10;;;1.95;;
39750;SDS011;37579;51.074;17.004;2023-03-12T16:01:55;5.38;;;1.90;;
39750;SDS011;37579;51.074;17.004;2023-03-12T16:04:22;7.28;;;2.30;;
39750;SDS011;37579;51.074;17.004;2023-03-12T16:06:49;5.22;;;1.58;;
39750;SDS011;37579;51.074;17.004;2023-03-12T16:09:20;4.70;;;1.88;;
39750;SDS011;37579;51.074;17.004;2023-03-12T16:11:48;4.13;;;1.67;;
39750;SDS011;37579;51.074;17.004;2023-03-12T16:14:22;4.50;;;1.58;;
39750;SDS011;37579;51.074;17.004;2023-03-12T16:16:51;4.55;;;1.60;;
39750;SDS011;37579;51.074;17.004;2023-03-12T16:19:19;4.68;;;1.73;;
39750;SDS011;37579;51.074;17.004;2023-03-12T16:21:46;4.72;;;1.83;;
39750;SDS011;37579;51.074;17.004;2023-03-12T16:24:12;6.60;;;2.10;;
39750;SDS011;37579;51.074;17.004;2023-03-12T16:26:48;5.78;;;2.00;;
39750;SDS011;37579;51.074;17.004;2023-03-12T16:29:17;4.22;;;2.03;;
39750;SDS011;37579;51.074;17.004;2023-03-12T16:31:48;5.35;;;1.60;;
39750;SDS011;37579;51.074;17.004;2023-03-12T16:34:18;5.13;;;2.10;;
39750;SDS011;37579;51.074;17.004;2023-03-12T16:36:44;3.13;;;1.35;;
39750;SDS011;37579;51.074;17.004;2023-03-12T16:39:09;5.50;;;1.92;;
39750;SDS011;37579;51.074;17.004;2023-03-12T16:41:35;3.85;;;1.40;;
39750;SDS011;37579;51.074;17.004;2023-03-12T16:44:01;6.45;;;1.55;;
39750;SDS011;37579;51.074;17.004;2023-03-12T16:46:30;3.90;;;1.83;;
39750;SDS011;37579;51.074;17.004;2023-03-12T16:48:56;4.65;;;2.08;;
39750;SDS011;37579;51.074;17.004;2023-03-12T16:51:23;6.80;;;1.92;;
39750;SDS011;37579;51.074;17.004;2023-03-12T16:53:50;3.80;;;1.80;;
39750;SDS011;37579;51.074;17.004;2023-03-12T16:56:17;4.90;;;2.10;;
39750;SDS011;37579;51.074;17.004;2023-03-12T16:58:45;3.78;;;1.73;;
39750;SDS011;37579;51.074;17.004;2023-03-12T17:01:13;4.13;;;1.83;;
39750;SDS011;37579;51.074;17.004;2023-03-12T17:03:42;4.32;;;1.63;;
39750;SDS011;37579;51.074;17.004;2023-03-12T17:06:43;4.75;;;1.90;;
39750;SDS011;37579;51.074;17.004;2023-03-12T17:09:04;4.10;;;1.95;;
39750;SDS011;37579;51.074;17.004;2023-03-12T17:11:32;3.88;;;1.77;;
39750;SDS011;37579;51.074;17.004;2023-03-12T17:14:01;7.38;;;2.00;;
39750;SDS011;37579;51.074;17.004;2023-03-12T17:16:30;6.38;;;1.90;;
39750;SDS011;37579;51.074;17.004;2023-03-12T17:18:56;5.60;;;2.70;;
39750;SDS011;37579;51.074;17.004;2023-03-12T17:21:21;6.25;;;2.25;;
39750;SDS011;37579;51.074;17.004;2023-03-12T17:23:48;7.35;;;2.33;;